Time;durP1;ratioP1;P1;durP2;ratioP2;P2;SDS_P1;SDS_P2;PMS_P1;PMS_P2;Temp;Humidity;BMP_temperature;BMP_pressure;BME280_temperature;BME280_humidity;BME280_pressure;Samples;Min_cycle;Max_cycle;Signal;HPM_P1;HPM_P2
2023/03/20 00:00:42;;;;;;;4.50;4.10;;;;;;;;;;6322333;22;20461;-78
2023/03/20 00:03:21;;;;;;;4.57;4.20;;;;;;;;;;6304304;22;20484;-76
2023/03/20 00:06:05;;;;;;;5.10;4.70;;;;;;;;;;6316238;22;20494;-78
2023/03/20 00:08:38;;;;;;;4.67;4.37;;;;;;;;;;6319197;22;20410;-77
2023/03/20 00:11:14;;;;;;;4.83;4.43;;;;;;;;;;6325598;22;20395;-77
2023/03/20 00:13:55;;;;;;;5.27;4.87;;;;;;;;;;6324077;22;20465;-78
2023/03/20 00:16:44;;;;;;;5.07;4.77;;;;;;;;;;6326694;22;20463;-77
2023/03/20 00:19:28;;;;;;;5.33;4.83;;;;;;;;;;6327904;22;20431;-77
2023/03/20 00:21:58;;;;;;;5.73;5.33;;;;;;;;;;6326726;22;20424;-77
2023/03/20 00:24:37;;;;;;;5.03;4.70;;;;;;;;;;6327775;22;20434;-76
2023/03/20 00:27:22;;;;;;;6.67;5.87;;;;;;;;;;6328332;22;20528;-77
2023/03/20 00:30:04;;;;;;;6.47;5.97;;;;;;;;;;6326725;22;20998;-77
2023/03/20 00:32:55;;;;;;;6.80;6.30;;;;;;;;;;6324468;22;20913;-77
2023/03/20 00:35:29;;;;;;;7.17;6.67;;;;;;;;;;6328669;22;20449;-76
2023/03/20 00:38:23;;;;;;;7.73;7.10;;;;;;;;;;6326635;22;20407;-76
2023/03/20 00:41:10;;;;;;;7.47;6.87;;;;;;;;;;6327279;22;20438;-76
2023/03/20 00:43:45;;;;;;;7.80;7.20;;;;;;;;;;6328228;22;20407;-78
2023/03/20 00:46:54;;;;;;;7.20;6.70;;;;;;;;;;6327795;22;20403;-78
2023/03/20 00:52:47;;;;;;;6.60;5.87;;;;;;;;;;6328659;22;20400;-78
2023/03/20 00:55:35;;;;;;;7.10;6.40;;;;;;;;;;6324096;22;20916;-77
2023/03/20 00:58:29;;;;;;;;;;;;;;;;;;;;;
2023/03/20 01:01:01;;;;;;;5.40;5.00;;;;;;;;;;6313268;22;20422;-78
2023/03/20 01:03:45;;;;;;;4.60;4.30;;;;;;;;;;6314418;22;20407;-76
2023/03/20 01:06:31;;;;;;;4.20;3.90;;;;;;;;;;6311907;22;20411;-76
2023/03/20 01:09:05;;;;;;;3.60;3.40;;;;;;;;;;6310402;22;20438;-76
2023/03/20 01:11:41;;;;;;;4.50;4.20;;;;;;;;;;6313705;22;20430;-76
2023/03/20 01:17:18;;;;;;;3.60;3.40;;;;;;;;;;6313968;22;20388;-77
2023/03/20 01:20:01;;;;;;;3.83;3.63;;;;;;;;;;6314373;22;20446;-77
2023/03/20 01:22:37;;;;;;;3.50;3.30;;;;;;;;;;6312985;22;20407;-77
2023/03/20 01:25:14;;;;;;;5.00;4.70;;;;;;;;;;6313164;22;20431;-77
2023/03/20 01:27:46;;;;;;;5.47;5.13;;;;;;;;;;6313164;22;20408;-76
2023/03/20 01:30:35;;;;;;;4.77;4.33;;;;;;;;;;6312000;22;20454;-76
2023/03/20 01:33:13;;;;;;;4.10;3.90;;;;;;;;;;6311280;22;20413;-76
2023/03/20 01:38:36;;;;;;;4.37;4.03;;;;;;;;;;6290609;22;20383;-77
2023/03/20 01:41:17;;;;;;;4.70;4.30;;;;;;;;;;6310828;22;20441;-77
2023/03/20 01:43:57;;;;;;;4.10;3.90;;;;;;;;;;6282060;22;20431;-77
2023/03/20 01:46:46;;;;;;;3.80;3.60;;;;;;;;;;6310930;22;20417;-77
2023/03/20 01:49:34;;;;;;;3.77;3.57;;;;;;;;;;6308601;22;20411;-77
2023/03/20 01:52:14;;;;;;;4.00;3.80;;;;;;;;;;6307929;22;20439;-76
2023/03/20 01:54:49;;;;;;;4.00;3.70;;;;;;;;;;6311946;22;20433;-77
2023/03/20 02:00:15;;;;;;;3.10;2.90;;;;;;;;;;6294154;22;20431;-77
2023/03/20 02:03:09;;;;;;;3.50;3.20;;;;;;;;;;6316246;22;20406;-76
2023/03/20 02:06:00;;;;;;;3.30;3.10;;;;;;;;;;6315113;22;20453;-77
2023/03/20 02:08:50;;;;;;;3.30;3.10;;;;;;;;;;6318287;22;20491;-76
2023/03/20 02:11:56;;;;;;;;;;;;;;;;;;;;;
2023/03/20 02:14:36;;;;;;;3.60;3.40;;;;;;;;;;6323792;22;20408;-77
2023/03/20 02:17:21;;;;;;;2.70;2.60;;;;;;;;;;6324272;22;20403;-77
2023/03/20 02:20:11;;;;;;;2.17;2.07;;;;;;;;;;6320673;22;20802;-77
2023/03/20 02:23:26;;;;;;;2.50;2.40;;;;;;;;;;6318591;22;20482;-76
2023/03/20 02:26:23;;;;;;;2.10;2.00;;;;;;;;;;6321943;22;20411;-76
2023/03/20 02:29:40;;;;;;;;;;;;;;;;;;;;;
2023/03/20 02:32:37;;;;;;;2.07;1.97;;;;;;;;;;6325870;22;20409;-77
2023/03/20 02:35:38;;;;;;;1.93;1.83;;;;;;;;;;6323669;22;20446;-78
2023/03/20 02:38:27;;;;;;;1.97;1.87;;;;;;;;;;6320760;22;20457;-76
2023/03/20 02:53:41;;;;;;;1.63;1.53;;;;;;;;;;6033776;23;20485;-77
2023/03/20 02:56:35;;;;;;;1.70;1.60;;;;;;;;;;6181864;23;20407;-77
2023/03/20 02:59:13;;;;;;;1.67;1.57;;;;;;;;;;6192847;23;20498;-78
2023/03/20 03:04:30;;;;;;;4.00;1.30;;;;;;;;;;6244060;22;20420;-76
2023/03/20 03:07:06;;;;;;;1.37;1.30;;;;;;;;;;6249176;22;20480;-76
2023/03/20 03:10:00;;;;;;;;;;;;;;;;;;;;;
2023/03/20 03:12:47;;;;;;;1.40;1.30;;;;;;;;;;6247822;23;20385;-76
2023/03/20 03:15:28;;;;;;;2.07;1.10;;;;;;;;;;6247754;22;20425;-75
2023/03/20 03:18:12;;;;;;;1.00;1.00;;;;;;;;;;6247593;22;20428;-76
2023/03/20 03:23:53;;;;;;;1.20;1.20;;;;;;;;;;6241367;22;20409;-77
2023/03/20 03:26:47;;;;;;;1.43;1.33;;;;;;;;;;6246242;22;20417;-76
2023/03/20 03:32:38;;;;;;;1.10;1.10;;;;;;;;;;6246933;23;21143;-77
2023/03/20 03:35:30;;;;;;;1.17;1.07;;;;;;;;;;6246398;22;20432;-77
2023/03/20 03:38:35;;;;;;;0.90;0.90;;;;;;;;;;6247022;22;20420;-78
2023/03/20 03:47:16;;;;;;;1.30;1.30;;;;;;;;;;6245645;22;20870;-77
2023/03/20 03:50:05;;;;;;;1.83;1.13;;;;;;;;;;6247045;22;20413;-77
2023/03/20 03:52:57;;;;;;;1.03;0.93;;;;;;;;;;6245186;22;20413;-77
2023/03/20 04:04:45;;;;;;;1.10;1.00;;;;;;;;;;6058693;23;20422;-77
2023/03/20 04:13:41;;;;;;;1.13;1.13;;;;;;;;;;5945596;23;20393;-77
2023/03/20 04:16:12;;;;;;;1.07;1.07;;;;;;;;;;6221233;23;20484;-77
2023/03/20 04:18:54;;;;;;;0.90;0.90;;;;;;;;;;6247433;23;20516;-78
2023/03/20 04:21:27;;;;;;;1.00;1.00;;;;;;;;;;6248183;23;20441;-77
2023/03/20 04:24:06;;;;;;;1.50;0.97;;;;;;;;;;6247196;22;20433;-77
2023/03/20 04:26:46;;;;;;;2.40;1.30;;;;;;;;;;6247843;23;20420;-77
2023/03/20 04:29:22;;;;;;;1.20;1.10;;;;;;;;;;6246821;22;20425;-78
2023/03/20 04:32:04;;;;;;;1.50;1.40;;;;;;;;;;6246630;22;20409;-76
2023/03/20 04:34:37;;;;;;;1.10;1.10;;;;;;;;;;6246932;22;20500;-77
2023/03/20 04:37:11;;;;;;;0.93;0.93;;;;;;;;;;6247945;23;20413;-77
2023/03/20 04:40:04;;;;;;;1.00;1.00;;;;;;;;;;6247524;23;20425;-76
2023/03/20 04:42:44;;;;;;;1.10;1.10;;;;;;;;;;6247977;22;20409;-77
2023/03/20 04:45:32;;;;;;;1.20;1.20;;;;;;;;;;6248172;22;20512;-77
2023/03/20 04:48:15;;;;;;;2.40;2.20;;;;;;;;;;6248214;22;20417;-77
2023/03/20 04:50:50;;;;;;;1.50;1.40;;;;;;;;;;6249989;23;20588;-78
2023/03/20 04:53:24;;;;;;;1.20;1.20;;;;;;;;;;6249950;22;20492;-76
2023/03/20 04:56:09;;;;;;;1.30;1.20;;;;;;;;;;6250565;23;20467;-78
2023/03/20 04:58:39;;;;;;;1.40;1.40;;;;;;;;;;6251328;22;20448;-76
2023/03/20 05:01:34;;;;;;;1.53;1.47;;;;;;;;;;6251385;23;20443;-77
2023/03/20 05:04:19;;;;;;;1.30;1.30;;;;;;;;;;6186943;23;20963;-77
2023/03/20 05:07:03;;;;;;;1.20;1.13;;;;;;;;;;6176125;23;20442;-76
2023/03/20 05:09:38;;;;;;;1.40;1.40;;;;;;;;;;6244659;23;20413;-78
2023/03/20 05:12:14;;;;;;;1.23;1.23;;;;;;;;;;6253214;22;20401;-78
2023/03/20 05:14:57;;;;;;;1.63;1.50;;;;;;;;;;6252444;23;20532;-77
2023/03/20 05:17:34;;;;;;;1.70;1.60;;;;;;;;;;6252113;23;20413;-76
2023/03/20 05:20:05;;;;;;;2.13;2.03;;;;;;;;;;6255514;23;20938;-75
2023/03/20 05:22:51;;;;;;;1.87;1.77;;;;;;;;;;6249462;23;20421;-79
2023/03/20 05:25:22;;;;;;;1.90;1.40;;;;;;;;;;6250795;23;20479;-77
2023/03/20 05:28:00;;;;;;;1.50;1.40;;;;;;;;;;6250154;22;20911;-76
2023/03/20 05:33:20;;;;;;;1.50;1.50;;;;;;;;;;6252213;23;20405;-78
2023/03/20 06:20:46;;;;;;;1.33;1.30;;;;;;;;;;5937406;24;20484;-78
2023/03/20 06:23:24;;;;;;;1.30;1.30;;;;;;;;;;6013548;23;20450;-76
2023/03/20 06:26:03;;;;;;;1.80;1.70;;;;;;;;;;6167300;23;20419;-77
2023/03/20 06:28:36;;;;;;;3.20;2.90;;;;;;;;;;6167516;23;20465;-78
2023/03/20 06:31:16;;;;;;;1.73;1.63;;;;;;;;;;6167060;23;20418;-78
2023/03/20 06:33:50;;;;;;;2.10;1.90;;;;;;;;;;6169674;23;20415;-77
2023/03/20 06:36:21;;;;;;;2.13;1.80;;;;;;;;;;6172287;23;20511;-77
2023/03/20 06:39:06;;;;;;;1.80;1.80;;;;;;;;;;6171772;23;20417;-77
2023/03/20 06:41:56;;;;;;;30.90;27.53;;;;;;;;;;6171806;23;20498;-78
2023/03/20 06:44:26;;;;;;;4.10;3.50;;;;;;;;;;6167662;23;20443;-78
2023/03/20 06:46:57;;;;;;;3.23;2.90;;;;;;;;;;6172585;23;20417;-77
2023/03/20 06:49:37;;;;;;;2.10;1.90;;;;;;;;;;6169804;23;20419;-77
2023/03/20 06:52:16;;;;;;;1.70;1.60;;;;;;;;;;6170045;23;20411;-79
2023/03/20 06:54:49;;;;;;;4.00;2.10;;;;;;;;;;6167653;23;20750;-76
2023/03/20 06:57:23;;;;;;;2.40;2.10;;;;;;;;;;6166394;23;20400;-78
2023/03/20 06:59:53;;;;;;;2.10;2.00;;;;;;;;;;6166709;23;20412;-78
2023/03/20 07:02:32;;;;;;;2.10;2.00;;;;;;;;;;6164776;23;20419;-77
2023/03/20 07:13:35;;;;;;;1.87;1.77;;;;;;;;;;6156868;23;20412;-77
2023/03/20 07:16:21;;;;;;;3.23;2.20;;;;;;;;;;6129311;23;20440;-77
2023/03/20 07:21:37;;;;;;;2.50;2.40;;;;;;;;;;6122658;23;20423;-78
2023/03/20 07:27:11;;;;;;;5.67;5.13;;;;;;;;;;6113025;23;20413;-77
2023/03/20 07:30:07;;;;;;;2.00;1.90;;;;;;;;;;6131815;23;20443;-78
2023/03/20 07:33:08;;;;;;;1.80;1.70;;;;;;;;;;6081716;23;20437;-77
2023/03/20 07:36:00;;;;;;;;;;;;;;;;;;;;;
2023/03/20 07:38:36;;;;;;;1.93;1.83;;;;;;;;;;6132188;23;20626;-78
2023/03/20 07:41:10;;;;;;;2.23;2.13;;;;;;;;;;6131998;23;20503;-77
2023/03/20 07:43:46;;;;;;;2.03;1.93;;;;;;;;;;6131803;23;20475;-78
2023/03/20 07:46:27;;;;;;;2.40;2.30;;;;;;;;;;6135993;23;20867;-77
2023/03/20 07:49:04;;;;;;;2.97;2.63;;;;;;;;;;6139269;23;20461;-78
2023/03/20 07:51:41;;;;;;;2.57;2.47;;;;;;;;;;6140635;23;20411;-78
2023/03/20 07:54:14;;;;;;;2.17;2.07;;;;;;;;;;6143773;23;20452;-75
2023/03/20 07:56:44;;;;;;;2.33;2.13;;;;;;;;;;6143151;23;20757;-77
2023/03/20 07:59:15;;;;;;;4.00;2.37;;;;;;;;;;6145737;23;20753;-76
2023/03/20 08:01:46;;;;;;;2.20;2.10;;;;;;;;;;6146418;23;20400;-78
2023/03/20 08:04:18;;;;;;;2.40;2.30;;;;;;;;;;6145309;23;20445;-77
2023/03/20 08:06:51;;;;;;;2.17;2.07;;;;;;;;;;6146972;23;20400;-77
2023/03/20 08:09:21;;;;;;;2.30;2.20;;;;;;;;;;6144481;23;20420;-77
2023/03/20 08:11:50;;;;;;;2.27;2.17;;;;;;;;;;6144219;23;20398;-77
2023/03/20 08:14:23;;;;;;;4.50;2.53;;;;;;;;;;6145667;23;20484;-77
2023/03/20 08:17:00;;;;;;;1.93;1.80;;;;;;;;;;6136195;23;20492;-77
2023/03/20 08:19:36;;;;;;;2.37;2.27;;;;;;;;;;6131289;23;20420;-77
2023/03/20 08:22:19;;;;;;;2.63;2.43;;;;;;;;;;6134475;23;20436;-77
2023/03/20 08:24:57;;;;;;;2.40;2.30;;;;;;;;;;6131173;23;20445;-79
2023/03/20 08:27:30;;;;;;;1.87;1.77;;;;;;;;;;6136435;23;20417;-77
2023/03/20 08:30:09;;;;;;;2.27;2.17;;;;;;;;;;6136808;23;20419;-78
2023/03/20 08:32:42;;;;;;;2.17;1.93;;;;;;;;;;6138275;23;20429;-77
2023/03/20 08:35:19;;;;;;;3.70;2.20;;;;;;;;;;6135837;23;20687;-76
2023/03/20 08:38:04;;;;;;;2.30;2.20;;;;;;;;;;6134110;23;20415;-77
2023/03/20 08:40:33;;;;;;;2.40;2.20;;;;;;;;;;6134121;23;20438;-78
2023/03/20 08:43:11;;;;;;;2.10;2.00;;;;;;;;;;6133032;23;20413;-79
2023/03/20 08:45:50;;;;;;;2.00;1.90;;;;;;;;;;6133627;23;20487;-77
2023/03/20 08:48:26;;;;;;;2.00;1.90;;;;;;;;;;6131621;23;20437;-77
2023/03/20 08:50:59;;;;;;;2.13;2.03;;;;;;;;;;6131562;23;20421;-78
2023/03/20 08:53:50;;;;;;;1.93;1.83;;;;;;;;;;6131466;23;20413;-78
2023/03/20 08:56:31;;;;;;;2.10;1.93;;;;;;;;;;6132309;23;20444;-77
2023/03/20 08:59:07;;;;;;;2.00;1.73;;;;;;;;;;6130148;23;20508;-76
2023/03/20 09:01:45;;;;;;;4.67;1.97;;;;;;;;;;6130052;23;20428;-78
2023/03/20 09:04:30;;;;;;;1.70;1.60;;;;;;;;;;6128344;23;20471;-77
2023/03/20 09:07:16;;;;;;;1.80;1.70;;;;;;;;;;6129387;23;20412;-77
2023/03/20 09:10:06;;;;;;;2.47;2.30;;;;;;;;;;6127982;23;20443;-78
2023/03/20 09:12:42;;;;;;;1.67;1.57;;;;;;;;;;6111395;23;20890;-77
2023/03/20 09:27:20;;;;;;;2.00;1.90;;;;;;;;;;5791286;24;20460;-78
2023/03/20 09:30:03;;;;;;;1.93;1.83;;;;;;;;;;5979093;23;20494;-77
2023/03/20 09:35:25;;;;;;;1.63;1.53;;;;;;;;;;6093324;23;20430;-78
2023/03/20 09:38:12;;;;;;;1.60;1.50;;;;;;;;;;6096193;23;20422;-78
2023/03/20 09:40:52;;;;;;;1.43;1.43;;;;;;;;;;6095097;23;20418;-77
2023/03/20 09:46:48;;;;;;;1.37;1.37;;;;;;;;;;6085949;23;20500;-79
2023/03/20 09:49:38;;;;;;;1.70;1.40;;;;;;;;;;6094479;23;20406;-78
2023/03/20 09:52:18;;;;;;;1.70;1.60;;;;;;;;;;6096517;23;20496;-77
2023/03/20 09:54:53;;;;;;;2.50;1.87;;;;;;;;;;6097466;23;20433;-77
2023/03/20 09:57:36;;;;;;;1.73;1.63;;;;;;;;;;6098005;23;20512;-77
2023/03/20 10:00:28;;;;;;;1.87;1.77;;;;;;;;;;6096862;23;20418;-78
2023/03/20 10:03:16;;;;;;;;;;;;;;;;;;;;;
2023/03/20 10:06:04;;;;;;;1.50;1.50;;;;;;;;;;6097768;23;20452;-78
2023/03/20 10:08:54;;;;;;;1.77;1.67;;;;;;;;;;6098260;23;20888;-77
2023/03/20 10:11:43;;;;;;;1.50;1.40;;;;;;;;;;6100123;23;20410;-78
2023/03/20 10:14:25;;;;;;;1.80;1.70;;;;;;;;;;6097826;23;20425;-78
2023/03/20 10:17:05;;;;;;;2.87;2.67;;;;;;;;;;6102805;23;20507;-78
2023/03/20 10:19:39;;;;;;;2.10;1.60;;;;;;;;;;6127126;23;20440;-77
2023/03/20 10:22:24;;;;;;;1.87;1.77;;;;;;;;;;6127104;23;20414;-77
2023/03/20 10:38:57;;;;;;;1.27;1.17;;;;;;;;;;5960780;24;20502;-77
2023/03/20 10:41:40;;;;;;;1.80;1.70;;;;;;;;;;5960893;23;20422;-77
2023/03/20 10:44:16;;;;;;;3.07;1.87;;;;;;;;;;6013266;23;20473;-78
2023/03/20 10:46:58;;;;;;;2.07;1.97;;;;;;;;;;6014440;23;20438;-78
2023/03/20 10:49:48;;;;;;;2.53;2.33;;;;;;;;;;6073345;23;20418;-78
2023/03/20 10:52:32;;;;;;;2.70;2.50;;;;;;;;;;6072710;23;20421;-78
2023/03/20 10:55:16;;;;;;;2.63;2.43;;;;;;;;;;6070574;23;20438;-78
2023/03/20 11:01:01;;;;;;;3.50;2.90;;;;;;;;;;6061940;23;20429;-77
2023/03/20 11:09:35;;;;;;;3.40;3.20;;;;;;;;;;6063407;23;20767;-77
2023/03/20 11:12:18;;;;;;;4.10;3.70;;;;;;;;;;6072788;23;20418;-79
2023/03/20 11:15:10;;;;;;;6.70;4.90;;;;;;;;;;6072703;23;20433;-78
2023/03/20 11:18:03;;;;;;;5.20;4.70;;;;;;;;;;6073395;23;20422;-78
2023/03/20 11:20:47;;;;;;;5.40;4.10;;;;;;;;;;6074212;23;20418;-77
2023/03/20 11:41:32;;;;;;;5.53;5.03;;;;;;;;;;5919184;24;20577;-78
2023/03/20 11:50:12;;;;;;;5.87;5.37;;;;;;;;;;6129221;23;20488;-79
2023/03/20 11:55:42;;;;;;;7.30;5.30;;;;;;;;;;6126309;23;20433;-78
2023/03/20 12:01:31;;;;;;;6.00;5.40;;;;;;;;;;6122071;23;20405;-78
2023/03/20 12:04:12;;;;;;;6.73;6.13;;;;;;;;;;6127300;23;20994;-78
2023/03/20 12:06:50;;;;;;;5.93;5.33;;;;;;;;;;6127315;23;20409;-78
2023/03/20 12:09:39;;;;;;;6.63;5.87;;;;;;;;;;6128098;23;20898;-77
2023/03/20 12:12:14;;;;;;;6.50;5.90;;;;;;;;;;6127950;23;20421;-77
2023/03/20 12:14:55;;;;;;;6.53;5.60;;;;;;;;;;6126568;23;20433;-78
2023/03/20 12:17:39;;;;;;;6.20;5.70;;;;;;;;;;6126589;23;20769;-79
2023/03/20 12:20:18;;;;;;;5.87;5.37;;;;;;;;;;6127880;23;20417;-78
2023/03/20 12:22:58;;;;;;;5.83;5.33;;;;;;;;;;6128646;23;20806;-78
2023/03/20 12:25:38;;;;;;;5.40;4.93;;;;;;;;;;6129110;23;20505;-78
2023/03/20 12:28:19;;;;;;;5.60;5.10;;;;;;;;;;6101467;23;20428;-79
2023/03/20 12:30:56;;;;;;;6.13;4.63;;;;;;;;;;6096719;23;20434;-78
2023/03/20 12:33:41;;;;;;;5.33;4.90;;;;;;;;;;6097616;23;20413;-79
2023/03/20 12:36:17;;;;;;;6.27;5.77;;;;;;;;;;6097459;23;20967;-78
2023/03/20 12:38:48;;;;;;;4.83;4.40;;;;;;;;;;6095533;23;20465;-79
2023/03/20 12:41:24;;;;;;;4.83;4.33;;;;;;;;;;6095244;23;20409;-78
2023/03/20 12:44:12;;;;;;;6.10;5.00;;;;;;;;;;6094593;23;20540;-78
2023/03/20 12:46:48;;;;;;;6.00;5.30;;;;;;;;;;6095541;23;20402;-77
2023/03/20 12:49:37;;;;;;;5.23;4.73;;;;;;;;;;6097254;23;20418;-77
2023/03/20 12:52:10;;;;;;;5.00;4.50;;;;;;;;;;6097717;23;20418;-78
2023/03/20 12:55:00;;;;;;;7.53;5.30;;;;;;;;;;6095946;23;20705;-78
2023/03/20 12:57:41;;;;;;;5.80;5.30;;;;;;;;;;6070124;23;20912;-78
2023/03/20 13:00:22;;;;;;;7.50;5.70;;;;;;;;;;6096231;23;20502;-78
2023/03/20 13:03:06;;;;;;;5.87;5.30;;;;;;;;;;6096269;23;20417;-78
2023/03/20 13:05:43;;;;;;;5.83;5.23;;;;;;;;;;6096839;23;20453;-78
2023/03/20 13:08:32;;;;;;;5.20;4.80;;;;;;;;;;6097250;23;20452;-79
2023/03/20 13:11:10;;;;;;;5.13;4.73;;;;;;;;;;6083750;23;20433;-78
2023/03/20 13:13:46;;;;;;;5.03;4.63;;;;;;;;;;6096933;23;20409;-78
2023/03/20 13:16:29;;;;;;;5.00;4.60;;;;;;;;;;6098168;23;20794;-78
2023/03/20 13:19:05;;;;;;;6.00;5.40;;;;;;;;;;6096601;23;20462;-80
2023/03/20 13:21:55;;;;;;;6.10;5.50;;;;;;;;;;6096344;23;20413;-80
2023/03/20 13:40:02;;;;;;;;;;;;;;;;;;;;;
2023/03/20 14:20:15;;;;;;;4.47;4.17;;;;;;;;;;6117959;23;20445;-79
2023/03/20 14:22:44;;;;;;;4.77;4.27;;;;;;;;;;6135218;23;20385;-78
2023/03/20 14:25:21;;;;;;;3.87;3.60;;;;;;;;;;6130233;23;20441;-78
2023/03/20 14:27:57;;;;;;;4.83;3.17;;;;;;;;;;6129182;23;20416;-78
2023/03/20 14:30:45;;;;;;;5.53;5.03;;;;;;;;;;6128574;23;20416;-78
2023/03/20 14:33:31;;;;;;;4.53;4.13;;;;;;;;;;6127875;23;20423;-81
2023/03/20 14:36:21;;;;;;;4.10;3.80;;;;;;;;;;6129032;23;20416;-78
2023/03/20 14:39:09;;;;;;;3.20;2.90;;;;;;;;;;6131245;23;20434;-79
2023/03/20 14:41:47;;;;;;;7.60;6.90;;;;;;;;;;6128304;23;20444;-79
2023/03/20 14:44:25;;;;;;;7.63;5.00;;;;;;;;;;6134048;23;20738;-78
2023/03/20 14:47:00;;;;;;;4.10;3.80;;;;;;;;;;6130670;23;21053;-79
2023/03/20 14:49:45;;;;;;;5.70;3.33;;;;;;;;;;6130484;23;20417;-79
2023/03/20 14:52:33;;;;;;;4.63;3.40;;;;;;;;;;6131261;23;20432;-78
2023/03/20 14:58:18;;;;;;;4.33;3.00;;;;;;;;;;6171288;23;20813;-77
2023/03/20 15:01:12;;;;;;;3.00;2.73;;;;;;;;;;6008442;23;20540;-79
2023/03/20 15:03:44;;;;;;;3.00;2.80;;;;;;;;;;6008478;23;20423;-78
2023/03/20 15:06:21;;;;;;;3.47;2.60;;;;;;;;;;6010880;23;20456;-78
2023/03/20 15:08:57;;;;;;;4.07;3.30;;;;;;;;;;6014922;23;20420;-77
2023/03/20 15:11:27;;;;;;;3.40;3.10;;;;;;;;;;6078759;23;20415;-78
2023/03/20 15:13:57;;;;;;;3.27;2.97;;;;;;;;;;6192006;23;20431;-78
2023/03/20 15:16:31;;;;;;;3.17;2.87;;;;;;;;;;6191822;23;20411;-79
2023/03/20 15:19:28;;;;;;;3.30;3.10;;;;;;;;;;6194749;23;20410;-77
2023/03/20 15:22:04;;;;;;;2.80;2.60;;;;;;;;;;6197645;23;20411;-78
2023/03/20 16:13:49;;;;;;;2.03;1.93;;;;;;;;;;5785489;24;20417;-78
2023/03/20 16:16:25;;;;;;;2.10;2.00;;;;;;;;;;5889274;24;20425;-79
2023/03/20 16:18:58;;;;;;;1.50;1.40;;;;;;;;;;6028968;23;20452;-78
2023/03/20 16:21:34;;;;;;;2.23;2.03;;;;;;;;;;6120425;23;20413;-79
2023/03/20 16:24:10;;;;;;;2.00;1.80;;;;;;;;;;6131929;23;20787;-79
2023/03/20 16:26:45;;;;;;;2.07;1.67;;;;;;;;;;6132979;23;20835;-78
2023/03/20 16:29:20;;;;;;;1.83;1.73;;;;;;;;;;6133877;23;20412;-79
2023/03/20 16:32:05;;;;;;;1.90;1.77;;;;;;;;;;6135853;23;20440;-78
2023/03/20 16:50:35;;;;;;;1.93;1.83;;;;;;;;;;5675810;25;20444;-80
2023/03/20 16:53:11;;;;;;;2.00;1.90;;;;;;;;;;5850356;24;20420;-77
2023/03/20 16:55:47;;;;;;;1.83;1.73;;;;;;;;;;6126871;23;20400;-78
2023/03/20 16:58:21;;;;;;;1.67;1.57;;;;;;;;;;6151273;23;20405;-80
2023/03/20 17:01:05;;;;;;;2.40;2.27;;;;;;;;;;6150306;23;20413;-79
2023/03/20 17:03:41;;;;;;;1.90;1.70;;;;;;;;;;6146079;23;20433;-78
2023/03/20 17:06:34;;;;;;;2.20;2.10;;;;;;;;;;6145431;23;20451;-77
2023/03/20 17:09:22;;;;;;;1.80;1.70;;;;;;;;;;6136887;23;20425;-78
2023/03/20 17:12:06;;;;;;;1.90;1.80;;;;;;;;;;6128224;23;20413;-78
2023/03/20 17:14:40;;;;;;;2.17;1.97;;;;;;;;;;6129696;23;20440;-76
2023/03/20 17:17:12;;;;;;;2.27;2.17;;;;;;;;;;6132947;23;20412;-77
2023/03/20 17:19:50;;;;;;;2.33;2.10;;;;;;;;;;6130264;23;20420;-79
2023/03/20 17:22:23;;;;;;;2.47;2.13;;;;;;;;;;6128622;23;20914;-77
2023/03/20 17:25:00;;;;;;;1.93;1.83;;;;;;;;;;6127276;23;20441;-78
2023/03/20 17:27:39;;;;;;;2.20;2.10;;;;;;;;;;6128065;23;20452;-78
2023/03/20 17:33:20;;;;;;;2.00;1.90;;;;;;;;;;6122539;23;20413;-79
2023/03/20 17:36:01;;;;;;;1.80;1.50;;;;;;;;;;6127429;23;20429;-77
2023/03/20 17:38:41;;;;;;;1.70;1.60;;;;;;;;;;6127294;23;20467;-77
2023/03/20 17:41:23;;;;;;;2.00;1.90;;;;;;;;;;6156334;23;20906;-78
2023/03/20 17:44:08;;;;;;;1.83;1.73;;;;;;;;;;6157935;23;20499;-78
2023/03/20 17:46:43;;;;;;;3.40;2.10;;;;;;;;;;6168220;23;20828;-78
2023/03/20 17:49:33;;;;;;;2.53;2.30;;;;;;;;;;6162724;23;20420;-77
2023/03/20 17:52:10;;;;;;;2.30;2.20;;;;;;;;;;6155628;23;20454;-80
2023/03/20 17:55:04;;;;;;;2.10;1.90;;;;;;;;;;6154667;23;20435;-78
2023/03/20 17:57:58;;;;;;;2.30;2.10;;;;;;;;;;6153080;23;20955;-80
2023/03/20 18:03:42;;;;;;;4.27;2.60;;;;;;;;;;6135463;23;20471;-79
2023/03/20 18:06:28;;;;;;;3.10;2.80;;;;;;;;;;6156469;23;20975;-79
2023/03/20 18:09:00;;;;;;;2.60;2.40;;;;;;;;;;6155641;23;20431;-79
2023/03/20 18:11:39;;;;;;;2.47;2.30;;;;;;;;;;6155385;23;20423;-79
2023/03/20 18:55:08;;;;;;;4.70;4.30;;;;;;;;;;5929549;24;20942;-79
2023/03/20 18:57:57;;;;;;;4.20;3.80;;;;;;;;;;5934905;24;20788;-80
2023/03/20 19:00:28;;;;;;;4.57;4.17;;;;;;;;;;5931556;24;20448;-78
2023/03/20 19:03:07;;;;;;;4.07;3.67;;;;;;;;;;5930629;24;20419;-77
2023/03/20 19:11:18;;;;;;;3.57;3.37;;;;;;;;;;6166359;23;20883;-78
2023/03/20 20:04:45;;;;;;;3.57;3.27;;;;;;;;;;5909754;24;20492;-77
2023/03/20 20:13:05;;;;;;;3.50;3.20;;;;;;;;;;6154765;23;20458;-76
2023/03/20 20:15:38;;;;;;;3.87;3.57;;;;;;;;;;6153936;23;20421;-77
2023/03/20 20:18:13;;;;;;;3.93;3.60;;;;;;;;;;6154387;23;20405;-77
2023/03/20 20:20:56;;;;;;;3.23;3.00;;;;;;;;;;6152101;23;20443;-77
2023/03/20 20:23:41;;;;;;;3.63;3.33;;;;;;;;;;6141998;23;20440;-78
2023/03/20 20:26:16;;;;;;;3.33;3.13;;;;;;;;;;6138771;23;20448;-80
2023/03/20 20:28:56;;;;;;;3.27;3.03;;;;;;;;;;6139618;23;20413;-78
2023/03/20 20:31:42;;;;;;;3.40;3.20;;;;;;;;;;6142728;23;20423;-79
2023/03/20 20:34:24;;;;;;;3.53;3.27;;;;;;;;;;6141176;23;20520;-77
2023/03/20 20:37:10;;;;;;;4.60;2.90;;;;;;;;;;6135935;23;20416;-79
2023/03/20 20:39:48;;;;;;;3.10;2.90;;;;;;;;;;6133306;23;20428;-78
2023/03/20 21:03:05;;;;;;;3.90;3.60;;;;;;;;;;5793455;24;20439;-77
2023/03/20 21:29:32;;;;;;;3.70;3.30;;;;;;;;;;6162472;23;20427;-77
2023/03/20 21:32:20;;;;;;;4.20;3.90;;;;;;;;;;6161047;23;20795;-79
2023/03/20 21:35:16;;;;;;;3.73;3.43;;;;;;;;;;6162200;23;20435;-77
2023/03/20 21:40:49;;;;;;;3.53;3.23;;;;;;;;;;6160799;23;20412;-79
2023/03/20 21:49:11;;;;;;;5.63;5.13;;;;;;;;;;6155266;23;20429;-78
2023/03/20 21:51:56;;;;;;;5.00;4.60;;;;;;;;;;6161345;23;20476;-77
2023/03/20 21:57:41;;;;;;;4.30;3.97;;;;;;;;;;6152302;23;20419;-79
2023/03/20 22:00:28;;;;;;;4.10;3.80;;;;;;;;;;6160331;23;20519;-78
2023/03/20 22:03:05;;;;;;;3.73;3.43;;;;;;;;;;6163486;23;20424;-77
2023/03/20 22:08:39;;;;;;;4.57;3.63;;;;;;;;;;6151253;23;20456;-77
2023/03/20 22:14:05;;;;;;;3.77;3.47;;;;;;;;;;6159331;23;20432;-76
2023/03/20 22:16:59;;;;;;;3.50;3.20;;;;;;;;;;6167877;23;20408;-77
2023/03/20 22:23:09;;;;;;;3.63;3.33;;;;;;;;;;6167549;23;20720;-77
2023/03/20 22:25:37;;;;;;;3.30;3.10;;;;;;;;;;6164833;23;20446;-77
2023/03/20 22:28:14;;;;;;;6.47;4.13;;;;;;;;;;6168535;23;20439;-77
2023/03/20 22:30:59;;;;;;;3.33;3.13;;;;;;;;;;6162926;23;20420;-77
2023/03/20 22:39:20;;;;;;;4.13;3.83;;;;;;;;;;6162953;23;20411;-77
2023/03/20 22:42:06;;;;;;;3.63;3.37;;;;;;;;;;6162474;23;20407;-78
2023/03/20 22:47:37;;;;;;;3.60;3.30;;;;;;;;;;6163282;23;20459;-78
2023/03/20 22:50:10;;;;;;;4.13;3.83;;;;;;;;;;6166081;23;20412;-78
2023/03/20 22:52:54;;;;;;;5.87;4.37;;;;;;;;;;6165505;23;20458;-77
2023/03/20 22:55:34;;;;;;;5.33;4.93;;;;;;;;;;6164579;23;20436;-78
2023/03/20 22:58:14;;;;;;;4.90;4.50;;;;;;;;;;6168179;23;20411;-78
2023/03/20 23:00:58;;;;;;;5.30;4.83;;;;;;;;;;6171744;23;20408;-79
2023/03/20 23:03:29;;;;;;;10.03;9.03;;;;;;;;;;6176860;23;20797;-77
2023/03/20 23:09:09;;;;;;;6.23;5.73;;;;;;;;;;6162292;23;20427;-77
2023/03/20 23:11:54;;;;;;;5.97;5.37;;;;;;;;;;6167620;23;20412;-76
2023/03/20 23:17:35;;;;;;;6.30;5.43;;;;;;;;;;6170698;23;20447;-78
2023/03/20 23:20:13;;;;;;;5.90;5.13;;;;;;;;;;6168668;23;20430;-78
2023/03/20 23:22:55;;;;;;;5.67;5.20;;;;;;;;;;6161236;23;20502;-78
2023/03/20 23:25:29;;;;;;;5.70;5.27;;;;;;;;;;6159945;23;20498;-78
2023/03/20 23:28:09;;;;;;;6.77;4.60;;;;;;;;;;6157846;23;20467;-77
2023/03/20 23:30:52;;;;;;;5.53;5.03;;;;;;;;;;6156768;23;20408;-78
2023/03/20 23:33:33;;;;;;;5.80;5.20;;;;;;;;;;6156934;23;20932;-76
2023/03/20 23:36:06;;;;;;;8.27;5.43;;;;;;;;;;6157961;23;20416;-77
2023/03/20 23:38:37;;;;;;;6.00;5.30;;;;;;;;;;6161602;23;20423;-76
2023/03/20 23:41:13;;;;;;;6.20;5.60;;;;;;;;;;6159647;23;20392;-78
2023/03/20 23:43:47;;;;;;;5.10;4.70;;;;;;;;;;6160668;23;20420;-77
2023/03/20 23:46:28;;;;;;;8.17;5.03;;;;;;;;;;6167076;23;20384;-77
2023/03/20 23:49:00;;;;;;;5.20;4.80;;;;;;;;;;6165534;23;20471;-78
2023/03/20 23:51:39;;;;;;;5.83;5.20;;;;;;;;;;6169440;23;20426;-77
2023/03/20 23:54:21;;;;;;;6.10;5.60;;;;;;;;;;6168832;23;20439;-78
2023/03/20 23:56:55;;;;;;;5.93;4.90;;;;;;;;;;6171864;23;20451;-77
2023/03/20 23:59:28;;;;;;;6.10;4.97;;;;;;;;;;6176180;23;20416;-78
